createdAt,value
2018-06-14T00:01:40.803Z,4.73
2018-06-14T00:04:08.724Z,4.87
2018-06-14T00:06:36.920Z,5.13
2018-06-14T00:09:07.462Z,5.87
2018-06-14T00:11:35.666Z,5.77
2018-06-14T00:14:03.940Z,6.10
2018-06-14T00:16:33.136Z,5.23
2018-06-14T00:19:01.316Z,5.87
2018-06-14T00:21:29.500Z,5.50
2018-06-14T00:23:57.708Z,5.23
2018-06-14T00:26:25.644Z,5.77
2018-06-14T00:28:53.880Z,5.17
2018-06-14T00:31:22.120Z,5.43
2018-06-14T00:33:50.319Z,5.77
2018-06-14T00:36:18.534Z,5.37
2018-06-14T00:38:46.737Z,6.80
2018-06-14T00:41:14.944Z,5.77
2018-06-14T00:43:43.135Z,5.77
2018-06-14T00:46:11.327Z,5.63
2018-06-14T00:48:39.619Z,6.07
2018-06-14T00:51:07.837Z,5.60
2018-06-14T00:53:36.047Z,5.80
2018-06-14T00:56:04.260Z,6.53
2018-06-14T00:58:32.457Z,6.63
2018-06-14T01:01:00.704Z,5.83
2018-06-14T01:03:28.930Z,5.90
2018-06-14T01:05:57.269Z,6.50
2018-06-14T01:08:25.491Z,6.03
2018-06-14T01:10:54.491Z,5.80
2018-06-14T01:13:22.714Z,5.57
2018-06-14T01:15:50.903Z,5.57
2018-06-14T01:18:19.477Z,5.83
2018-06-14T01:20:47.688Z,6.10
2018-06-14T01:23:15.892Z,6.07
2018-06-14T01:25:44.092Z,6.30
2018-06-14T01:28:12.283Z,6.57
2018-06-14T01:30:41.016Z,7.20
2018-06-14T01:33:09.231Z,6.77
2018-06-14T01:35:37.443Z,6.67
2018-06-14T01:38:17.011Z,6.00
2018-06-14T01:40:45.206Z,6.53
2018-06-14T01:43:13.442Z,5.53
2018-06-14T01:45:41.646Z,5.87
2018-06-14T01:48:09.877Z,6.70
2018-06-14T01:50:38.121Z,6.50
2018-06-14T01:53:06.360Z,6.90
2018-06-14T01:55:34.564Z,6.70
2018-06-14T01:58:03.732Z,6.63
2018-06-14T02:00:31.919Z,6.20
2018-06-14T02:03:00.152Z,6.20
2018-06-14T02:05:28.894Z,6.00
2018-06-14T02:07:57.088Z,6.47
2018-06-14T02:10:25.584Z,5.83
2018-06-14T02:12:53.788Z,6.80
2018-06-14T02:15:22.004Z,6.27
2018-06-14T02:17:50.196Z,6.43
2018-06-14T02:20:18.380Z,6.37
2018-06-14T02:22:46.605Z,7.37
2018-06-14T02:25:14.812Z,6.50
2018-06-14T02:27:43.036Z,7.00
2018-06-14T02:30:11.219Z,6.17
2018-06-14T02:32:39.420Z,6.53
2018-06-14T02:35:07.728Z,6.33
2018-06-14T02:37:41.873Z,7.43
2018-06-14T02:40:12.053Z,6.27
2018-06-14T02:42:40.804Z,6.17
2018-06-14T02:45:09.053Z,6.83
2018-06-14T02:47:37.236Z,7.10
2018-06-14T02:50:06.013Z,6.70
2018-06-14T02:52:34.521Z,6.67
2018-06-14T02:55:02.732Z,7.10
2018-06-14T02:57:30.962Z,6.97
2018-06-14T02:59:59.149Z,7.10
2018-06-14T03:02:27.440Z,7.13
2018-06-14T03:04:55.626Z,6.63
2018-06-14T03:07:29.202Z,7.30
2018-06-14T03:09:57.424Z,6.93
2018-06-14T03:12:25.904Z,7.30
2018-06-14T03:14:54.157Z,7.50
2018-06-14T03:17:22.449Z,7.10
2018-06-14T03:19:51.925Z,7.53
2018-06-14T03:22:21.060Z,7.47
2018-06-14T03:24:49.419Z,7.57
2018-06-14T03:27:17.866Z,7.63
2018-06-14T03:29:46.224Z,7.53
2018-06-14T03:32:14.676Z,7.63
2018-06-14T03:34:42.923Z,7.13
2018-06-14T03:37:11.112Z,7.90
2018-06-14T03:39:39.415Z,6.73
2018-06-14T03:42:12.644Z,7.83
2018-06-14T03:44:40.929Z,6.77
2018-06-14T03:47:09.632Z,6.87
2018-06-14T03:49:39.268Z,7.20
2018-06-14T03:52:08.276Z,7.37
2018-06-14T03:54:36.753Z,6.70
2018-06-14T03:57:04.980Z,7.27
2018-06-14T03:59:33.579Z,6.60
2018-06-14T04:02:01.621Z,7.30
2018-06-14T04:04:29.848Z,7.60
2018-06-14T04:06:58.080Z,7.10
2018-06-14T04:09:26.321Z,6.27
2018-06-14T04:11:54.570Z,6.60
2018-06-14T04:14:22.851Z,6.53
2018-06-14T04:16:51.049Z,6.70
2018-06-14T04:19:19.278Z,7.30
2018-06-14T04:21:47.468Z,6.67
2018-06-14T04:24:15.747Z,7.50
2018-06-14T04:26:43.965Z,7.30
2018-06-14T04:29:12.156Z,7.03
2018-06-14T04:31:40.413Z,7.27
2018-06-14T04:34:08.593Z,7.30
2018-06-14T04:36:36.831Z,8.20
2018-06-14T04:39:07.881Z,7.73
2018-06-14T04:41:36.140Z,7.10
2018-06-14T04:44:04.413Z,7.07
2018-06-14T04:46:32.609Z,7.80
2018-06-14T04:49:00.844Z,7.07
2018-06-14T04:51:29.077Z,7.83
2018-06-14T04:53:57.256Z,6.97
2018-06-14T04:56:25.476Z,6.70
2018-06-14T04:58:53.741Z,8.03
2018-06-14T05:01:21.980Z,7.00
2018-06-14T05:03:51.852Z,6.83
2018-06-14T05:06:20.069Z,6.87
2018-06-14T05:08:48.327Z,7.17
2018-06-14T05:11:16.247Z,7.50
2018-06-14T05:13:44.515Z,7.23
2018-06-14T05:16:12.669Z,7.33
2018-06-14T05:18:40.881Z,7.33
2018-06-14T05:21:09.101Z,6.93
2018-06-14T05:23:37.361Z,7.40
2018-06-14T05:26:05.500Z,7.93
2018-06-14T05:28:33.708Z,7.37
2018-06-14T05:31:01.954Z,7.23
2018-06-14T05:33:30.174Z,7.50
2018-06-14T05:35:58.399Z,7.00
2018-06-14T05:38:26.616Z,7.30
2018-06-14T05:40:54.820Z,7.13
2018-06-14T05:43:23.030Z,7.07
2018-06-14T05:45:51.226Z,8.50
2018-06-14T05:48:19.452Z,7.10
2018-06-14T05:50:47.641Z,8.50
2018-06-14T05:53:15.840Z,7.77
2018-06-14T05:55:44.288Z,7.67
2018-06-14T05:58:12.498Z,7.50
2018-06-14T06:00:40.724Z,7.30
2018-06-14T06:03:08.928Z,7.27
2018-06-14T06:05:37.143Z,6.53
2018-06-14T06:08:05.339Z,7.07
2018-06-14T06:10:33.556Z,7.13
2018-06-14T06:13:01.891Z,6.40
2018-06-14T06:15:30.092Z,6.17
2018-06-14T06:17:58.375Z,6.93
2018-06-14T06:20:26.592Z,7.00
2018-06-14T06:22:54.793Z,6.73
2018-06-14T06:25:23.016Z,6.60
2018-06-14T06:27:51.232Z,6.30
2018-06-14T06:30:19.433Z,6.03
2018-06-14T06:32:47.612Z,6.37
2018-06-14T06:35:15.815Z,6.40
2018-06-14T06:37:44.011Z,5.90
2018-06-14T06:40:12.228Z,6.40
2018-06-14T06:42:40.448Z,5.13
2018-06-14T06:45:08.711Z,4.90
2018-06-14T06:47:36.920Z,5.17
2018-06-14T06:50:05.180Z,5.27
2018-06-14T06:52:33.387Z,5.20
2018-06-14T06:55:01.592Z,5.20
2018-06-14T06:57:29.816Z,5.03
2018-06-14T06:59:58.024Z,4.17
2018-06-14T07:02:26.233Z,5.00
2018-06-14T07:04:54.432Z,4.27
2018-06-14T07:07:22.648Z,4.63
2018-06-14T07:09:50.848Z,4.17
2018-06-14T07:12:19.089Z,3.87
2018-06-14T07:14:47.305Z,4.30
2018-06-14T07:17:15.497Z,4.00
2018-06-14T07:19:43.732Z,4.17
2018-06-14T07:22:11.952Z,3.90
2018-06-14T07:24:40.132Z,3.67
2018-06-14T07:27:08.352Z,3.93
2018-06-14T07:29:36.566Z,3.40
2018-06-14T07:32:04.527Z,3.90
2018-06-14T07:34:32.760Z,4.40
2018-06-14T07:37:00.970Z,3.80
2018-06-14T07:39:29.198Z,3.00
2018-06-14T07:41:57.415Z,2.20
2018-06-14T07:44:25.597Z,1.63
2018-06-14T07:46:53.804Z,1.67
2018-06-14T07:49:22.036Z,1.70
2018-06-14T07:51:50.229Z,1.80
2018-06-14T07:54:18.489Z,1.10
2018-06-14T07:56:46.780Z,1.60
2018-06-14T07:59:14.977Z,1.43
2018-06-14T08:01:43.217Z,1.50
2018-06-14T08:04:11.453Z,1.97
2018-06-14T08:06:40.069Z,1.50
2018-06-14T08:09:09.683Z,1.70
2018-06-14T08:11:38.200Z,1.87
2018-06-14T08:14:06.409Z,1.73
2018-06-14T08:16:34.848Z,1.80
2018-06-14T08:19:03.144Z,2.17
2018-06-14T08:21:31.389Z,2.17
2018-06-14T08:23:59.613Z,1.67
2018-06-14T08:26:27.815Z,1.73
2018-06-14T08:28:56.004Z,1.70
2018-06-14T08:31:24.264Z,1.50
2018-06-14T08:33:52.461Z,1.40
2018-06-14T08:36:20.668Z,1.37
2018-06-14T08:38:48.848Z,1.70
2018-06-14T08:41:17.072Z,1.50
2018-06-14T08:43:45.373Z,1.50
2018-06-14T08:46:13.558Z,1.20
2018-06-14T08:48:41.773Z,1.47
2018-06-14T08:51:10.012Z,1.50
2018-06-14T08:53:38.212Z,1.50
2018-06-14T08:56:06.448Z,1.60
2018-06-14T08:58:34.648Z,1.50
2018-06-14T09:01:02.887Z,1.43
2018-06-14T09:03:31.113Z,1.43
2018-06-14T09:05:59.600Z,1.37
2018-06-14T09:08:28.599Z,1.40
2018-06-14T09:10:56.833Z,1.90
2018-06-14T09:13:25.011Z,1.50
2018-06-14T09:15:53.230Z,1.37
2018-06-14T09:18:21.433Z,1.60
2018-06-14T09:20:49.656Z,1.87
2018-06-14T09:23:17.888Z,1.40
2018-06-14T09:25:46.099Z,2.03
2018-06-14T09:28:14.329Z,1.70
2018-06-14T09:30:42.531Z,1.57
2018-06-14T09:33:10.727Z,1.93
2018-06-14T09:35:38.952Z,1.60
2018-06-14T09:38:07.169Z,1.80
2018-06-14T09:40:35.119Z,1.87
2018-06-14T09:43:03.381Z,1.77
2018-06-14T09:45:31.542Z,2.20
2018-06-14T09:47:59.744Z,2.30
2018-06-14T09:50:28.032Z,2.20
2018-06-14T09:52:56.277Z,1.90
2018-06-14T09:55:24.227Z,2.13
2018-06-14T09:57:52.485Z,2.57
2018-06-14T10:00:20.697Z,2.33
2018-06-14T10:02:48.921Z,2.10
2018-06-14T10:05:16.888Z,2.30
2018-06-14T10:07:45.100Z,1.97
2018-06-14T10:10:13.296Z,1.97
2018-06-14T10:12:41.524Z,2.10
2018-06-14T10:15:09.813Z,2.37
2018-06-14T10:17:38.008Z,2.60
2018-06-14T10:20:06.300Z,2.27
2018-06-14T10:22:34.517Z,2.37
2018-06-14T10:25:02.737Z,1.70
2018-06-14T10:27:30.960Z,1.67
2018-06-14T10:29:59.163Z,1.80
2018-06-14T10:32:27.407Z,1.90
2018-06-14T10:34:55.688Z,2.00
2018-06-14T10:37:23.883Z,2.20
2018-06-14T10:39:52.114Z,2.10
2018-06-14T10:42:20.307Z,2.40
2018-06-14T10:44:48.262Z,2.43
2018-06-14T10:47:16.452Z,2.57
2018-06-14T10:49:44.668Z,2.13
2018-06-14T10:52:12.877Z,2.20
2018-06-14T10:54:41.091Z,2.03
2018-06-14T10:57:09.339Z,2.10
2018-06-14T10:59:37.528Z,2.10
2018-06-14T11:02:05.732Z,2.40
2018-06-14T11:04:33.951Z,2.37
2018-06-14T11:07:02.166Z,2.87
2018-06-14T11:09:30.348Z,2.70
2018-06-14T11:11:59.593Z,2.30
2018-06-14T11:14:27.807Z,2.40
2018-06-14T11:16:56.030Z,2.23
2018-06-14T11:19:24.240Z,3.13
2018-06-14T11:21:53.201Z,2.83
2018-06-14T11:24:21.454Z,2.80
2018-06-14T11:26:49.633Z,2.50
2018-06-14T11:29:17.907Z,3.33
2018-06-14T11:31:46.219Z,3.17
2018-06-14T11:34:14.415Z,3.00
2018-06-14T11:36:42.628Z,2.67
2018-06-14T11:39:10.875Z,2.90
2018-06-14T11:41:39.100Z,2.10
2018-06-14T11:44:07.461Z,2.30
2018-06-14T11:46:35.631Z,3.10
2018-06-14T11:49:03.832Z,2.50
2018-06-14T11:51:32.052Z,3.07
2018-06-14T11:54:00.240Z,3.03
2018-06-14T11:56:28.490Z,3.20
2018-06-14T11:58:56.747Z,3.00
2018-06-14T12:01:24.920Z,2.70
2018-06-14T12:03:53.735Z,3.17
2018-06-14T12:06:21.922Z,3.00
2018-06-14T12:08:50.128Z,3.13
2018-06-14T12:11:18.319Z,2.60
2018-06-14T12:13:46.543Z,2.77
2018-06-14T12:16:14.738Z,3.40
2018-06-14T12:18:42.932Z,3.03
2018-06-14T12:21:11.165Z,3.27
2018-06-14T12:23:39.359Z,3.23
2018-06-14T12:26:07.613Z,4.40
2018-06-14T12:28:36.042Z,2.97
2018-06-14T12:31:03.969Z,2.70
2018-06-14T12:33:32.246Z,2.97
2018-06-14T12:36:00.400Z,2.50
2018-06-14T12:38:28.592Z,3.07
2018-06-14T12:40:56.797Z,2.80
2018-06-14T12:43:25.018Z,2.57
2018-06-14T12:45:53.375Z,2.80
2018-06-14T12:48:21.575Z,3.10
2018-06-14T12:50:49.806Z,2.80
2018-06-14T12:53:18.006Z,2.40
2018-06-14T12:55:46.204Z,2.90
2018-06-14T12:58:14.429Z,2.90
2018-06-14T13:00:42.663Z,2.93
2018-06-14T13:03:10.856Z,3.10
2018-06-14T13:05:39.088Z,3.70
2018-06-14T13:08:07.396Z,3.20
2018-06-14T13:10:35.584Z,3.30
2018-06-14T13:13:03.796Z,3.03
2018-06-14T13:15:32.043Z,3.30
2018-06-14T13:18:00.468Z,2.90
2018-06-14T13:20:28.680Z,3.00
2018-06-14T13:22:56.892Z,3.00
2018-06-14T13:25:25.148Z,3.40
2018-06-14T13:27:53.344Z,3.00
2018-06-14T13:30:21.688Z,2.80
2018-06-14T13:32:49.929Z,3.00
2018-06-14T13:35:18.486Z,2.37
2018-06-14T13:37:46.746Z,2.50
2018-06-14T13:40:14.956Z,2.63
2018-06-14T13:42:42.951Z,2.60
2018-06-14T13:45:11.095Z,3.02
2018-06-14T13:47:39.335Z,2.20
2018-06-14T13:50:07.551Z,2.87
2018-06-14T13:52:35.804Z,2.97
2018-06-14T13:55:03.997Z,3.20
2018-06-14T13:57:32.327Z,2.90
2018-06-14T14:00:00.524Z,2.97
2018-06-14T14:02:28.744Z,2.70
2018-06-14T14:04:56.944Z,2.80
2018-06-14T14:07:28.083Z,2.23
2018-06-14T14:09:57.177Z,2.40
2018-06-14T14:12:26.113Z,2.20
2018-06-14T14:14:54.478Z,2.77
2018-06-14T14:17:22.696Z,2.63
2018-06-14T14:19:50.894Z,3.07
2018-06-14T14:22:19.173Z,2.90
2018-06-14T14:24:48.224Z,2.47
2018-06-14T14:27:16.480Z,2.43
2018-06-14T14:29:44.684Z,2.57
2018-06-14T14:32:12.880Z,2.20
2018-06-14T14:34:41.075Z,2.27
2018-06-14T14:37:09.341Z,2.40
2018-06-14T14:39:37.520Z,2.20
2018-06-14T14:42:05.788Z,2.37
2018-06-14T14:44:34.048Z,2.90
2018-06-14T14:47:02.267Z,2.27
2018-06-14T14:49:30.455Z,2.30
2018-06-14T14:51:58.676Z,2.40
2018-06-14T14:54:26.902Z,2.75
2018-06-14T14:56:54.900Z,2.00
2018-06-14T14:59:23.100Z,2.35
2018-06-14T15:01:51.312Z,2.42
2018-06-14T15:04:19.532Z,2.47
2018-06-14T15:06:47.748Z,2.55
2018-06-14T15:09:15.936Z,2.20
2018-06-14T15:11:44.140Z,2.05
2018-06-14T15:14:12.376Z,1.95
2018-06-14T15:16:40.540Z,2.47
2018-06-14T15:19:08.744Z,2.20
2018-06-14T15:21:36.955Z,2.47
2018-06-14T15:24:05.188Z,2.30
2018-06-14T15:26:33.466Z,2.70
2018-06-14T15:29:01.772Z,2.00
2018-06-14T15:31:29.996Z,2.17
2018-06-14T15:33:58.212Z,2.20
2018-06-14T15:36:26.436Z,2.20
2018-06-14T15:38:54.624Z,2.60
2018-06-14T15:41:22.952Z,2.37
2018-06-14T15:43:51.165Z,2.40
2018-06-14T15:46:19.349Z,2.53
2018-06-14T15:48:47.751Z,2.60
2018-06-14T15:51:15.935Z,2.40
2018-06-14T15:53:44.153Z,2.60
2018-06-14T15:56:29.056Z,2.10
2018-06-14T15:58:57.992Z,2.40
2018-06-14T16:01:26.180Z,2.27
2018-06-14T16:03:54.375Z,2.40
2018-06-14T16:06:22.601Z,2.43
2018-06-14T16:08:50.784Z,2.63
2018-06-14T16:11:19.007Z,2.23
2018-06-14T16:13:47.192Z,2.83
2018-06-14T16:16:15.508Z,2.07
2018-06-14T16:18:43.790Z,2.67
2018-06-14T16:21:12.050Z,2.23
2018-06-14T16:23:40.243Z,2.00
2018-06-14T16:26:08.489Z,1.93
2018-06-14T16:28:36.737Z,2.10
2018-06-14T16:31:05.030Z,1.77
2018-06-14T16:33:33.303Z,2.30
2018-06-14T16:36:01.515Z,2.25
2018-06-14T16:38:29.962Z,2.37
2018-06-14T16:40:58.147Z,2.30
2018-06-14T16:43:26.369Z,2.15
2018-06-14T16:45:54.735Z,2.10
2018-06-14T16:48:22.978Z,2.37
2018-06-14T16:50:51.213Z,1.90
2018-06-14T16:53:19.420Z,2.22
2018-06-14T16:55:48.400Z,1.90
2018-06-14T16:58:16.621Z,2.10
2018-06-14T17:00:44.850Z,1.77
2018-06-14T17:03:13.099Z,2.15
2018-06-14T17:05:41.345Z,1.70
2018-06-14T17:08:09.364Z,2.17
2018-06-14T17:10:37.637Z,2.20
2018-06-14T17:13:05.824Z,2.05
2018-06-14T17:15:33.789Z,1.80
2018-06-14T17:18:02.035Z,2.27
2018-06-14T17:20:30.721Z,2.00
2018-06-14T17:22:58.926Z,1.93
2018-06-14T17:25:27.155Z,2.40
2018-06-14T17:27:55.380Z,2.30
2018-06-14T17:30:23.687Z,2.20
2018-06-14T17:32:51.896Z,2.27
2018-06-14T17:35:20.107Z,1.80
2018-06-14T17:37:48.311Z,2.00
2018-06-14T17:40:16.528Z,2.13
2018-06-14T17:42:44.740Z,2.07
2018-06-14T17:45:12.955Z,2.20
2018-06-14T17:47:41.279Z,2.03
2018-06-14T17:50:09.474Z,2.00
2018-06-14T17:52:37.681Z,2.20
2018-06-14T17:55:06.084Z,2.30
2018-06-14T17:57:34.272Z,2.00
2018-06-14T18:00:02.466Z,2.20
2018-06-14T18:02:30.694Z,1.83
2018-06-14T18:04:58.679Z,2.17
2018-06-14T18:07:26.901Z,2.40
2018-06-14T18:09:55.080Z,2.17
2018-06-14T18:12:23.296Z,2.20
2018-06-14T18:14:51.516Z,2.37
2018-06-14T18:17:19.704Z,2.57
2018-06-14T18:19:48.007Z,2.30
2018-06-14T18:22:16.327Z,2.60
2018-06-14T18:24:44.536Z,2.67
2018-06-14T18:27:12.887Z,2.20
2018-06-14T18:29:41.063Z,2.30
2018-06-14T18:32:09.296Z,2.30
2018-06-14T18:34:37.621Z,2.37
2018-06-14T18:37:05.805Z,2.23
2018-06-14T18:39:34.004Z,2.57
2018-06-14T18:42:02.209Z,2.87
2018-06-14T18:44:30.877Z,2.63
2018-06-14T18:46:59.135Z,2.73
2018-06-14T18:49:27.340Z,2.57
2018-06-14T18:51:55.531Z,2.97
2018-06-14T18:54:23.768Z,3.43
2018-06-14T18:56:51.964Z,3.17
2018-06-14T18:59:20.160Z,3.50
2018-06-14T19:01:48.372Z,3.33
2018-06-14T19:04:16.743Z,2.90
2018-06-14T19:06:44.747Z,3.10
2018-06-14T19:09:13.009Z,3.20
2018-06-14T19:11:41.218Z,2.70
2018-06-14T19:14:09.810Z,3.60
2018-06-14T19:16:38.020Z,3.27
2018-06-14T19:19:06.468Z,3.37
2018-06-14T19:21:34.711Z,3.50
2018-06-14T19:24:02.904Z,3.70
2018-06-14T19:26:31.202Z,4.00
2018-06-14T19:28:59.317Z,3.97
2018-06-14T19:31:27.564Z,4.30
2018-06-14T19:33:55.840Z,4.07
2018-06-14T19:36:24.036Z,4.93
2018-06-14T19:38:52.253Z,4.50
2018-06-14T19:41:20.452Z,4.77
2018-06-14T19:43:48.711Z,4.77
2018-06-14T19:46:16.957Z,4.00
2018-06-14T19:48:45.213Z,4.27
2018-06-14T19:51:14.129Z,4.60
2018-06-14T19:53:42.354Z,4.13
2018-06-14T19:56:10.559Z,4.77
2018-06-14T19:58:38.732Z,4.63
2018-06-14T20:01:06.989Z,4.73
2018-06-14T20:03:35.177Z,5.43
2018-06-14T20:06:03.488Z,5.73
2018-06-14T20:08:31.450Z,4.93
2018-06-14T20:10:59.761Z,5.53
2018-06-14T20:13:27.969Z,5.70
2018-06-14T20:15:56.202Z,5.73
2018-06-14T20:18:24.404Z,5.80
2018-06-14T20:20:52.770Z,6.13
2018-06-14T20:23:21.944Z,5.70
2018-06-14T20:25:50.220Z,6.00
2018-06-14T20:28:18.464Z,5.87
2018-06-14T20:30:46.659Z,5.50
2018-06-14T20:33:15.806Z,6.23
2018-06-14T20:35:44.002Z,5.37
2018-06-14T20:38:12.188Z,5.40
2018-06-14T20:40:40.393Z,5.33
2018-06-14T20:43:08.599Z,5.90
2018-06-14T20:45:36.793Z,5.53
2018-06-14T20:48:04.995Z,5.90
2018-06-14T20:50:33.188Z,6.13
2018-06-14T20:53:01.412Z,5.60
2018-06-14T20:55:29.592Z,5.50
2018-06-14T20:57:57.812Z,5.57
2018-06-14T21:00:26.170Z,5.57
2018-06-14T21:02:54.355Z,6.10
2018-06-14T21:05:22.620Z,6.67
2018-06-14T21:07:50.597Z,6.60
2018-06-14T21:10:18.838Z,6.37
2018-06-14T21:12:47.044Z,6.37
2018-06-14T21:15:15.219Z,6.83
2018-06-14T21:17:43.436Z,6.90
2018-06-14T21:20:11.647Z,6.20
2018-06-14T21:22:39.868Z,6.17
2018-06-14T21:25:08.077Z,6.37
2018-06-14T21:27:36.284Z,6.40
2018-06-14T21:30:04.513Z,6.50
2018-06-14T21:32:32.702Z,6.30
2018-06-14T21:35:00.949Z,6.17
2018-06-14T21:37:29.165Z,6.57
2018-06-14T21:39:57.392Z,6.53
2018-06-14T21:42:25.572Z,7.27
2018-06-14T21:44:53.788Z,6.63
2018-06-14T21:47:22.016Z,6.77
2018-06-14T21:49:51.224Z,7.30
2018-06-14T21:52:19.493Z,6.63
2018-06-14T21:54:47.717Z,7.10
2018-06-14T21:57:15.896Z,6.97
2018-06-14T21:59:44.092Z,7.20
2018-06-14T22:02:12.325Z,7.17
2018-06-14T22:04:40.529Z,7.03
2018-06-14T22:07:12.760Z,7.47
2018-06-14T22:09:40.986Z,7.40
2018-06-14T22:12:09.221Z,7.53
2018-06-14T22:14:37.470Z,6.77
2018-06-14T22:17:05.687Z,6.20
2018-06-14T22:19:33.887Z,7.30
2018-06-14T22:22:02.133Z,7.43
2018-06-14T22:24:30.368Z,6.60
2018-06-14T22:26:58.559Z,7.43
2018-06-14T22:29:27.383Z,7.17
2018-06-14T22:31:55.632Z,6.60
2018-06-14T22:34:35.193Z,8.43
2018-06-14T22:37:03.438Z,8.20
2018-06-14T22:39:31.628Z,8.50
2018-06-14T22:41:59.824Z,8.90
2018-06-14T22:44:28.134Z,8.50
2018-06-14T22:46:56.337Z,9.07
2018-06-14T22:49:24.576Z,8.23
2018-06-14T22:52:06.044Z,8.43
2018-06-14T22:54:34.276Z,8.93
2018-06-14T22:57:02.482Z,8.63
2018-06-14T22:59:30.690Z,9.20
2018-06-14T23:01:58.921Z,8.70
2018-06-14T23:04:28.196Z,8.07
2018-06-14T23:06:56.695Z,7.80
2018-06-14T23:10:35.512Z,7.57
2018-06-14T23:13:04.253Z,7.23
2018-06-14T23:15:32.524Z,7.50
2018-06-14T23:18:00.820Z,8.63
2018-06-14T23:20:29.836Z,8.47
2018-06-14T23:22:58.932Z,8.40
2018-06-14T23:25:27.925Z,8.50
2018-06-14T23:27:56.140Z,8.87
2018-06-14T23:30:24.364Z,10.23
2018-06-14T23:32:52.579Z,9.53
2018-06-14T23:35:20.865Z,9.73
2018-06-14T23:37:49.056Z,10.23
2018-06-14T23:40:17.313Z,9.87
2018-06-14T23:42:45.581Z,9.43
2018-06-14T23:45:13.769Z,9.53
2018-06-14T23:47:41.996Z,9.20
2018-06-14T23:50:10.206Z,9.73
2018-06-14T23:52:38.467Z,10.30
2018-06-14T23:55:06.704Z,10.13
2018-06-14T23:57:34.942Z,9.87
